• Join FlightAware (Why Join?)
  • Login
  • US Flag 
02:30AM EST


 

Airport Tracker/Info


-or-


 

Live Flight TrackerFlight Track Log ✈ DAL6140 ✈ 19-Apr-2013 ✈ CYUL - KLGA

Flight Track Log - Related Links

Times and Time Zones

All times are in EDT time to prevent confusion due to time zone crossing. See the DAL6140 flight status page for this flight to view local times or setup timezone preferences in your user account.

Time Position Orientation Groundspeed Altitude Reporting Facility
EDT Latitude Longitude Course Direction KTS MPH feet Rate Location/Type
07:16PM 45.4475 -73.7594 189° South 430 495 1,900  Level Boston Center
07:16PM 45.4167 -73.7667 189° South 170 196 2,900 3,000 Climbing Montreal Center
07:17PM 45.3833 -73.8000 215° Southwest 170 196 5,700 2,700 Climbing Montreal Center
07:18PM 45.3333 -73.8167 193° South 170 196 8,300 2,100 Climbing Montreal Center
07:19PM 45.2833 -73.8500 205° Southwest 210 242 9,900 1,440 Climbing Montreal Center
07:20PM 45.2167 -73.8833 199° South 250 288 11,200 1,500 Climbing Montreal Center
07:21PM 44.9406 -74.0854 189° South  Level FlightAware Approximate
07:21PM 45.1500 -73.9333 208° Southwest 280 322 12,900  Level Montreal Center
07:22PM 45.0667 -73.9500 188° South 300 345 14,400 1,500 Climbing Montreal Center
07:23PM 44.9833 -74.0000 203° Southwest 310 357 16,000 2,040 Climbing Montreal Center
07:24PM 44.9000 -74.0333 196° South 310 357 18,500 2,160 Climbing Montreal Center
07:25PM 44.8564 -74.0506 196° South 314 361 19,800 1,800 Climbing Boston Center
07:26PM 44.7753 -74.0394 174° South 320 368 21,700 1,860 Climbing Boston Center
07:27PM 44.6900 -74.0314 176° South 320 368 23,600 1,860 Climbing Boston Center
07:28PM 44.6047 -74.0203 175° South 320 368 25,500 1,140 Climbing Boston Center
07:29PM 44.5153 -74.0122 176° South 315 362 26,000 240 Climbing Boston Center
07:30PM 44.4153 -74.0008 175° South 342 394 26,000  Level Boston Center
07:31PM 44.3133 -73.9894 175° South 361 415 26,000  Level Boston Center
07:32PM 44.1950 -73.9719 174° South 387 445 26,000  Level Boston Center
07:33PM 44.0867 -73.9603 176° South 392 451 26,000  Level Boston Center
07:34PM 43.9786 -73.9461 175° South 392 451 26,000 -60 Level Boston Center
07:35PM 43.8494 -73.9314 175° South 392 451 25,900 -180 Descending Boston Center
07:36PM 43.7433 -73.9172 174° South 385 443 25,700 -480 Descending Boston Center
07:37PM 43.6497 -73.9064 175° South 385 443 25,000 -360 Descending Boston Center
07:38PM 43.5436 -73.8953 176° South 385 443 25,000  Level Boston Center
07:39PM 43.4333 -73.8839 176° South 390 449 25,000  Level Boston Center
07:40PM 43.3125 -73.8697 175° South 390 449 25,000 -120 Level Boston Center
07:41PM 43.2086 -73.8558 174° South 390 449 24,800 -540 Descending Boston Center
07:42PM 43.0983 -73.8447 176° South 420 483 24,000 -1,320 Descending Boston Center
07:43PM 42.9900 -73.8336 176° South 406 467 22,200 -1,080 Descending Boston Center
07:44PM 42.8881 -73.8203 175° South 386 444 21,900 -120 Descending Boston Center
07:45PM 42.7903 -73.8094 175° South 371 427 22,000  Climbing Boston Center
07:46PM 42.6967 -73.7961 174° South 354 407 22,000 -360 Level Boston Center
07:47PM 42.6156 -73.7772 170° South 354 407 21,300 -1,080 Descending Boston Center
07:48PM 42.4992 -73.7553 172° South 368 423 19,900 -1,140 Descending Boston Center
07:49PM 42.3972 -73.7361 172° South 381 438 19,100 -480 Descending Boston Center
07:50PM 42.3078 -73.7119 169° South 326 375 19,000 -60 Descending Boston Center
07:51PM 42.2369 -73.7019 174° South 308 354 19,000  Level Boston Center
07:52PM 42.1600 -73.6864 171° South 287 330 19,000  Level Boston Center
07:53PM 42.0853 -73.6708 171° South 282 325 19,000  Level Boston Center
07:54PM 42.0000 -73.6497 170° South 282 325 19,000 -780 Level Boston Center
07:55PM 41.9292 -73.6428 176° South 282 325 17,500 -1,080 Descending Boston Center
07:56PM 41.9239 -73.7431 266° West 214 246 16,900 -720 Descending Boston Center
07:57PM 41.9478 -73.8358 289° West 260 299 16,100 -1,620 Descending Boston Center
07:58PM 41.9053 -73.9158 234° Southwest 251 289 13,800 -1,800 Descending Boston Center
07:59PM 41.8325 -73.8861 163° South 207 238 12,500 -1,380 Descending Boston Center
08:00PM 41.7600 -73.8594 165° South 239 275 11,100 -1,380 Descending Boston Center
08:01PM 41.6997 -73.8358 164° South 244 281 9,800 -1,140 Descending Boston Center
08:02PM 41.6311 -73.8317 177° South 238 274 8,900 -360 Descending Boston Center
08:03PM 41.5500 -73.8500 190° South 239 275 9,000  Climbing New York TRACON
08:04PM 41.4667 -73.8667 189° South 246 283 9,000 -240 Level New York TRACON
08:05PM 41.4167 -73.8500 166° South 242 278 8,600 -540 Descending New York TRACON
08:06PM 41.3667 -73.8167 153° Southeast 207 238 8,000 -300 Descending New York TRACON
08:07PM 41.3333 -73.7500 124° Southeast 236 272 8,000  Level New York TRACON
08:08PM 41.3500 -73.6500 77° East 257 296 8,000  Level New York TRACON
08:09PM 41.3667 -73.5667 75° East 252 290 8,000  Level New York TRACON
08:10PM 41.3333 -73.5167 132° Southeast 199 229 8,000 -600 Level New York TRACON
08:11PM 41.2833 -73.4833 153° Southeast 190 219 6,900 -900 Descending New York TRACON
08:12PM 41.2500 -73.5000 201° Southwest 150 173 6,200 -900 Descending New York TRACON
08:13PM 41.2000 -73.5167 194° South 141 162 5,200 -1,080 Descending New York TRACON
08:14PM 41.1833 -73.5500 236° Southwest 143 165 4,200 -600 Descending New York TRACON
08:15PM 41.1500 -73.5833 217° Southwest 140 161 4,000 -120 Descending New York TRACON
08:16PM 41.1167 -73.6000 201° Southwest 142 163 4,000  Level New York TRACON
08:17PM 41.0833 -73.6333 217° Southwest 144 166 4,000  Level New York TRACON
08:18PM 41.0500 -73.6667 217° Southwest 143 165 4,000  Level New York TRACON
08:19PM 41.0167 -73.6833 201° Southwest 143 165 4,000  Level New York TRACON